sensor_id;sensor_type;location;lat;lon;timestamp;P1;durP1;ratioP1;P2;durP2;ratioP2
22131;SDS011;11232;51.748;19.390;2023-04-08T00:00:38;32.43;;;12.60;;
22131;SDS011;11232;51.748;19.390;2023-04-08T00:03:04;25.50;;;12.00;;
22131;SDS011;11232;51.748;19.390;2023-04-08T00:05:30;25.80;;;12.17;;
22131;SDS011;11232;51.748;19.390;2023-04-08T00:07:56;27.00;;;12.47;;
22131;SDS011;11232;51.748;19.390;2023-04-08T00:10:22;22.87;;;11.70;;
22131;SDS011;11232;51.748;19.390;2023-04-08T00:12:50;23.57;;;11.33;;
22131;SDS011;11232;51.748;19.390;2023-04-08T00:15:16;25.57;;;11.97;;
22131;SDS011;11232;51.748;19.390;2023-04-08T00:17:42;24.20;;;11.80;;
22131;SDS011;11232;51.748;19.390;2023-04-08T00:20:09;28.67;;;12.43;;
22131;SDS011;11232;51.748;19.390;2023-04-08T00:22:36;28.03;;;11.83;;
22131;SDS011;11232;51.748;19.390;2023-04-08T00:25:02;26.63;;;12.73;;
22131;SDS011;11232;51.748;19.390;2023-04-08T00:27:31;24.20;;;11.57;;
22131;SDS011;11232;51.748;19.390;2023-04-08T00:29:56;22.63;;;10.73;;
22131;SDS011;11232;51.748;19.390;2023-04-08T00:32:24;25.13;;;12.40;;
22131;SDS011;11232;51.748;19.390;2023-04-08T00:34:50;21.57;;;11.30;;
22131;SDS011;11232;51.748;19.390;2023-04-08T00:37:16;28.30;;;12.37;;
22131;SDS011;11232;51.748;19.390;2023-04-08T00:39:42;22.60;;;11.90;;
22131;SDS011;11232;51.748;19.390;2023-04-08T00:42:08;23.93;;;12.07;;
22131;SDS011;11232;51.748;19.390;2023-04-08T00:44:34;26.93;;;12.83;;
22131;SDS011;11232;51.748;19.390;2023-04-08T00:47:00;26.30;;;11.10;;
22131;SDS011;11232;51.748;19.390;2023-04-08T00:49:26;25.60;;;10.70;;
22131;SDS011;11232;51.748;19.390;2023-04-08T00:51:53;25.77;;;11.33;;
22131;SDS011;11232;51.748;19.390;2023-04-08T00:54:19;27.50;;;12.90;;
22131;SDS011;11232;51.748;19.390;2023-04-08T00:56:45;26.83;;;12.67;;
22131;SDS011;11232;51.748;19.390;2023-04-08T00:59:12;22.90;;;10.93;;
22131;SDS011;11232;51.748;19.390;2023-04-08T01:01:42;23.40;;;11.67;;
22131;SDS011;11232;51.748;19.390;2023-04-08T01:09:56;26.90;;;11.43;;
22131;SDS011;11232;51.748;19.390;2023-04-08T01:12:25;24.77;;;11.43;;
22131;SDS011;11232;51.748;19.390;2023-04-08T01:14:54;26.10;;;11.60;;
22131;SDS011;11232;51.748;19.390;2023-04-08T01:17:22;24.70;;;11.87;;
22131;SDS011;11232;51.748;19.390;2023-04-08T01:19:48;25.07;;;11.77;;
22131;SDS011;11232;51.748;19.390;2023-04-08T01:22:18;28.73;;;11.97;;
22131;SDS011;11232;51.748;19.390;2023-04-08T01:24:47;24.83;;;11.33;;
22131;SDS011;11232;51.748;19.390;2023-04-08T01:27:14;25.50;;;11.50;;
22131;SDS011;11232;51.748;19.390;2023-04-08T01:29:41;27.00;;;12.53;;
22131;SDS011;11232;51.748;19.390;2023-04-08T01:32:08;27.67;;;12.00;;
22131;SDS011;11232;51.748;19.390;2023-04-08T01:34:35;22.10;;;10.37;;
22131;SDS011;11232;51.748;19.390;2023-04-08T01:37:01;25.00;;;12.10;;
22131;SDS011;11232;51.748;19.390;2023-04-08T01:39:29;27.57;;;11.77;;
22131;SDS011;11232;51.748;19.390;2023-04-08T01:41:56;24.80;;;11.90;;
22131;SDS011;11232;51.748;19.390;2023-04-08T01:44:23;27.10;;;12.33;;
22131;SDS011;11232;51.748;19.390;2023-04-08T01:46:51;27.10;;;12.40;;
22131;SDS011;11232;51.748;19.390;2023-04-08T01:49:17;25.97;;;12.53;;
22131;SDS011;11232;51.748;19.390;2023-04-08T01:51:43;23.47;;;11.33;;
22131;SDS011;11232;51.748;19.390;2023-04-08T01:54:11;26.53;;;12.47;;
22131;SDS011;11232;51.748;19.390;2023-04-08T01:56:38;25.83;;;11.43;;
22131;SDS011;11232;51.748;19.390;2023-04-08T01:59:05;29.67;;;12.77;;
22131;SDS011;11232;51.748;19.390;2023-04-08T02:01:33;24.70;;;11.60;;
22131;SDS011;11232;51.748;19.390;2023-04-08T02:03:59;29.00;;;12.80;;
22131;SDS011;11232;51.748;19.390;2023-04-08T02:06:26;26.70;;;12.90;;
22131;SDS011;11232;51.748;19.390;2023-04-08T02:08:53;26.77;;;11.57;;
22131;SDS011;11232;51.748;19.390;2023-04-08T02:11:19;31.00;;;14.03;;
22131;SDS011;11232;51.748;19.390;2023-04-08T02:13:45;26.07;;;12.63;;
22131;SDS011;11232;51.748;19.390;2023-04-08T02:16:17;29.13;;;13.40;;
22131;SDS011;11232;51.748;19.390;2023-04-08T02:18:44;27.53;;;13.27;;
22131;SDS011;11232;51.748;19.390;2023-04-08T02:21:14;24.93;;;12.90;;
22131;SDS011;11232;51.748;19.390;2023-04-08T02:23:40;29.53;;;12.97;;
22131;SDS011;11232;51.748;19.390;2023-04-08T02:26:08;25.77;;;11.87;;
22131;SDS011;11232;51.748;19.390;2023-04-08T02:28:38;24.43;;;11.20;;
22131;SDS011;11232;51.748;19.390;2023-04-08T02:31:04;29.40;;;13.07;;
22131;SDS011;11232;51.748;19.390;2023-04-08T02:33:30;22.37;;;11.37;;
22131;SDS011;11232;51.748;19.390;2023-04-08T02:36:00;22.50;;;11.53;;
22131;SDS011;11232;51.748;19.390;2023-04-08T02:38:27;26.47;;;12.13;;
22131;SDS011;11232;51.748;19.390;2023-04-08T02:40:54;25.90;;;11.73;;
22131;SDS011;11232;51.748;19.390;2023-04-08T02:43:21;25.73;;;12.30;;
22131;SDS011;11232;51.748;19.390;2023-04-08T02:45:50;30.47;;;13.20;;
22131;SDS011;11232;51.748;19.390;2023-04-08T02:48:17;25.60;;;10.90;;
22131;SDS011;11232;51.748;19.390;2023-04-08T02:50:42;24.07;;;11.43;;
22131;SDS011;11232;51.748;19.390;2023-04-08T02:53:09;23.77;;;11.37;;
22131;SDS011;11232;51.748;19.390;2023-04-08T02:55:35;26.17;;;13.00;;
22131;SDS011;11232;51.748;19.390;2023-04-08T02:58:01;30.93;;;12.77;;
22131;SDS011;11232;51.748;19.390;2023-04-08T03:00:27;25.20;;;12.60;;
22131;SDS011;11232;51.748;19.390;2023-04-08T03:02:53;23.63;;;12.33;;
22131;SDS011;11232;51.748;19.390;2023-04-08T03:05:19;25.10;;;11.13;;
22131;SDS011;11232;51.748;19.390;2023-04-08T03:07:45;27.60;;;12.50;;
22131;SDS011;11232;51.748;19.390;2023-04-08T03:10:11;25.20;;;11.20;;
22131;SDS011;11232;51.748;19.390;2023-04-08T03:12:37;24.67;;;11.17;;
22131;SDS011;11232;51.748;19.390;2023-04-08T03:15:03;20.33;;;10.47;;
22131;SDS011;11232;51.748;19.390;2023-04-08T03:17:30;18.80;;;9.23;;
22131;SDS011;11232;51.748;19.390;2023-04-08T03:19:59;17.33;;;9.03;;
22131;SDS011;11232;51.748;19.390;2023-04-08T03:22:25;19.63;;;9.60;;
22131;SDS011;11232;51.748;19.390;2023-04-08T03:24:51;19.53;;;9.23;;
22131;SDS011;11232;51.748;19.390;2023-04-08T03:27:17;21.93;;;9.20;;
22131;SDS011;11232;51.748;19.390;2023-04-08T03:29:43;17.83;;;9.23;;
22131;SDS011;11232;51.748;19.390;2023-04-08T03:32:10;18.70;;;8.83;;
22131;SDS011;11232;51.748;19.390;2023-04-08T03:34:36;18.27;;;9.73;;
22131;SDS011;11232;51.748;19.390;2023-04-08T03:37:02;18.67;;;9.37;;
22131;SDS011;11232;51.748;19.390;2023-04-08T03:39:28;16.13;;;8.23;;
22131;SDS011;11232;51.748;19.390;2023-04-08T03:41:55;16.63;;;8.80;;
22131;SDS011;11232;51.748;19.390;2023-04-08T03:44:21;18.57;;;8.93;;
22131;SDS011;11232;51.748;19.390;2023-04-08T03:46:47;15.87;;;9.37;;
22131;SDS011;11232;51.748;19.390;2023-04-08T03:49:13;17.30;;;9.23;;
22131;SDS011;11232;51.748;19.390;2023-04-08T03:51:39;16.77;;;9.00;;
22131;SDS011;11232;51.748;19.390;2023-04-08T03:54:05;17.40;;;8.93;;
22131;SDS011;11232;51.748;19.390;2023-04-08T03:56:31;17.23;;;8.53;;
22131;SDS011;11232;51.748;19.390;2023-04-08T03:58:57;18.00;;;9.47;;
22131;SDS011;11232;51.748;19.390;2023-04-08T04:01:23;19.23;;;8.33;;
22131;SDS011;11232;51.748;19.390;2023-04-08T04:03:49;16.17;;;7.97;;
22131;SDS011;11232;51.748;19.390;2023-04-08T04:06:15;14.53;;;8.20;;
22131;SDS011;11232;51.748;19.390;2023-04-08T04:08:41;12.40;;;6.67;;
22131;SDS011;11232;51.748;19.390;2023-04-08T04:11:07;13.37;;;7.93;;
22131;SDS011;11232;51.748;19.390;2023-04-08T04:13:33;14.27;;;7.10;;
22131;SDS011;11232;51.748;19.390;2023-04-08T04:15:59;12.70;;;7.13;;
22131;SDS011;11232;51.748;19.390;2023-04-08T04:18:25;12.67;;;6.67;;
22131;SDS011;11232;51.748;19.390;2023-04-08T04:20:51;14.73;;;7.47;;
22131;SDS011;11232;51.748;19.390;2023-04-08T04:23:17;13.37;;;7.67;;
22131;SDS011;11232;51.748;19.390;2023-04-08T04:25:43;14.07;;;7.53;;
22131;SDS011;11232;51.748;19.390;2023-04-08T04:28:09;14.47;;;6.83;;
22131;SDS011;11232;51.748;19.390;2023-04-08T04:30:36;15.70;;;8.33;;
22131;SDS011;11232;51.748;19.390;2023-04-08T04:33:02;12.23;;;7.17;;
22131;SDS011;11232;51.748;19.390;2023-04-08T04:35:28;14.73;;;7.93;;
22131;SDS011;11232;51.748;19.390;2023-04-08T04:37:54;13.53;;;7.90;;
22131;SDS011;11232;51.748;19.390;2023-04-08T04:40:20;12.93;;;7.57;;
22131;SDS011;11232;51.748;19.390;2023-04-08T04:42:46;12.97;;;6.97;;
22131;SDS011;11232;51.748;19.390;2023-04-08T04:45:12;13.57;;;7.80;;
22131;SDS011;11232;51.748;19.390;2023-04-08T04:47:38;11.77;;;6.77;;
22131;SDS011;11232;51.748;19.390;2023-04-08T04:50:04;12.03;;;7.30;;
22131;SDS011;11232;51.748;19.390;2023-04-08T04:52:31;14.27;;;7.40;;
22131;SDS011;11232;51.748;19.390;2023-04-08T04:54:57;11.93;;;6.83;;
22131;SDS011;11232;51.748;19.390;2023-04-08T04:57:23;14.00;;;7.33;;
22131;SDS011;11232;51.748;19.390;2023-04-08T04:59:49;11.57;;;6.93;;
22131;SDS011;11232;51.748;19.390;2023-04-08T05:02:15;13.80;;;7.60;;
22131;SDS011;11232;51.748;19.390;2023-04-08T05:04:41;14.97;;;7.43;;
22131;SDS011;11232;51.748;19.390;2023-04-08T05:07:07;16.43;;;7.93;;
22131;SDS011;11232;51.748;19.390;2023-04-08T05:09:33;16.03;;;8.10;;
22131;SDS011;11232;51.748;19.390;2023-04-08T05:11:59;12.70;;;7.63;;
22131;SDS011;11232;51.748;19.390;2023-04-08T05:14:27;12.47;;;7.00;;
22131;SDS011;11232;51.748;19.390;2023-04-08T05:16:54;13.20;;;7.33;;
22131;SDS011;11232;51.748;19.390;2023-04-08T05:19:20;13.27;;;7.17;;
22131;SDS011;11232;51.748;19.390;2023-04-08T05:21:46;13.87;;;7.60;;
22131;SDS011;11232;51.748;19.390;2023-04-08T05:24:12;14.33;;;7.40;;
22131;SDS011;11232;51.748;19.390;2023-04-08T05:26:38;13.33;;;7.97;;
22131;SDS011;11232;51.748;19.390;2023-04-08T05:29:04;13.17;;;7.43;;
22131;SDS011;11232;51.748;19.390;2023-04-08T05:31:30;12.60;;;6.90;;
22131;SDS011;11232;51.748;19.390;2023-04-08T05:33:56;13.60;;;7.27;;
22131;SDS011;11232;51.748;19.390;2023-04-08T05:36:22;11.60;;;7.47;;
22131;SDS011;11232;51.748;19.390;2023-04-08T05:38:48;15.77;;;7.00;;
22131;SDS011;11232;51.748;19.390;2023-04-08T05:41:14;12.17;;;6.73;;
22131;SDS011;11232;51.748;19.390;2023-04-08T05:43:40;15.43;;;7.90;;
22131;SDS011;11232;51.748;19.390;2023-04-08T05:46:06;12.43;;;7.07;;
22131;SDS011;11232;51.748;19.390;2023-04-08T05:48:33;13.57;;;7.07;;
22131;SDS011;11232;51.748;19.390;2023-04-08T05:50:59;11.03;;;7.03;;
22131;SDS011;11232;51.748;19.390;2023-04-08T05:53:25;11.57;;;6.93;;
22131;SDS011;11232;51.748;19.390;2023-04-08T05:55:51;12.83;;;6.83;;
22131;SDS011;11232;51.748;19.390;2023-04-08T05:58:17;12.20;;;7.17;;
22131;SDS011;11232;51.748;19.390;2023-04-08T06:00:43;11.80;;;6.83;;
22131;SDS011;11232;51.748;19.390;2023-04-08T06:03:09;11.40;;;6.63;;
22131;SDS011;11232;51.748;19.390;2023-04-08T06:05:35;9.83;;;6.00;;
22131;SDS011;11232;51.748;19.390;2023-04-08T06:08:01;10.67;;;6.33;;
22131;SDS011;11232;51.748;19.390;2023-04-08T06:10:27;8.63;;;6.53;;
22131;SDS011;11232;51.748;19.390;2023-04-08T06:12:53;10.93;;;6.63;;
22131;SDS011;11232;51.748;19.390;2023-04-08T06:15:19;11.87;;;6.97;;
22131;SDS011;11232;51.748;19.390;2023-04-08T06:17:45;10.60;;;6.67;;
22131;SDS011;11232;51.748;19.390;2023-04-08T06:20:11;11.40;;;6.93;;
22131;SDS011;11232;51.748;19.390;2023-04-08T06:22:37;12.43;;;6.73;;
22131;SDS011;11232;51.748;19.390;2023-04-08T06:25:03;12.10;;;7.00;;
22131;SDS011;11232;51.748;19.390;2023-04-08T06:27:29;12.23;;;7.13;;
22131;SDS011;11232;51.748;19.390;2023-04-08T06:29:55;10.97;;;7.10;;
22131;SDS011;11232;51.748;19.390;2023-04-08T06:32:21;12.83;;;6.57;;
22131;SDS011;11232;51.748;19.390;2023-04-08T06:34:47;11.43;;;6.70;;
22131;SDS011;11232;51.748;19.390;2023-04-08T06:37:13;12.70;;;7.00;;
22131;SDS011;11232;51.748;19.390;2023-04-08T06:39:39;13.97;;;7.50;;
22131;SDS011;11232;51.748;19.390;2023-04-08T06:42:05;13.43;;;7.67;;
22131;SDS011;11232;51.748;19.390;2023-04-08T06:44:31;14.53;;;7.43;;
22131;SDS011;11232;51.748;19.390;2023-04-08T06:46:57;12.33;;;7.13;;
22131;SDS011;11232;51.748;19.390;2023-04-08T06:49:23;13.80;;;7.20;;
22131;SDS011;11232;51.748;19.390;2023-04-08T06:51:51;14.00;;;7.43;;
22131;SDS011;11232;51.748;19.390;2023-04-08T06:54:17;14.23;;;7.93;;
22131;SDS011;11232;51.748;19.390;2023-04-08T06:56:43;17.10;;;8.73;;
22131;SDS011;11232;51.748;19.390;2023-04-08T06:59:09;15.33;;;7.80;;
22131;SDS011;11232;51.748;19.390;2023-04-08T07:01:35;15.77;;;8.70;;
22131;SDS011;11232;51.748;19.390;2023-04-08T07:04:01;14.63;;;8.13;;
22131;SDS011;11232;51.748;19.390;2023-04-08T07:06:27;15.23;;;8.57;;
22131;SDS011;11232;51.748;19.390;2023-04-08T07:08:53;16.63;;;9.40;;
22131;SDS011;11232;51.748;19.390;2023-04-08T07:11:19;14.57;;;8.53;;
22131;SDS011;11232;51.748;19.390;2023-04-08T07:13:46;13.63;;;8.00;;
22131;SDS011;11232;51.748;19.390;2023-04-08T07:16:12;13.80;;;7.93;;
22131;SDS011;11232;51.748;19.390;2023-04-08T07:18:38;12.13;;;7.30;;
22131;SDS011;11232;51.748;19.390;2023-04-08T07:21:05;12.33;;;7.33;;
22131;SDS011;11232;51.748;19.390;2023-04-08T07:23:32;17.30;;;8.53;;
22131;SDS011;11232;51.748;19.390;2023-04-08T07:26:02;13.43;;;7.63;;
22131;SDS011;11232;51.748;19.390;2023-04-08T07:28:31;15.67;;;7.77;;
22131;SDS011;11232;51.748;19.390;2023-04-08T07:31:14;13.37;;;7.90;;
22131;SDS011;11232;51.748;19.390;2023-04-08T07:33:40;11.33;;;6.43;;
22131;SDS011;11232;51.748;19.390;2023-04-08T07:36:09;12.00;;;7.23;;
22131;SDS011;11232;51.748;19.390;2023-04-08T07:38:36;11.63;;;6.90;;
22131;SDS011;11232;51.748;19.390;2023-04-08T07:41:02;9.97;;;6.73;;
22131;SDS011;11232;51.748;19.390;2023-04-08T07:43:31;12.00;;;7.40;;
22131;SDS011;11232;51.748;19.390;2023-04-08T07:46:01;11.50;;;7.60;;
22131;SDS011;11232;51.748;19.390;2023-04-08T07:48:31;12.47;;;7.23;;
22131;SDS011;11232;51.748;19.390;2023-04-08T07:50:57;12.93;;;7.23;;
22131;SDS011;11232;51.748;19.390;2023-04-08T07:53:23;13.17;;;7.40;;
22131;SDS011;11232;51.748;19.390;2023-04-08T07:55:50;10.77;;;7.07;;
22131;SDS011;11232;51.748;19.390;2023-04-08T07:58:16;11.52;;;7.93;;
22131;SDS011;11232;51.748;19.390;2023-04-08T08:00:42;10.90;;;6.95;;
22131;SDS011;11232;51.748;19.390;2023-04-08T08:03:08;12.93;;;7.15;;
22131;SDS011;11232;51.748;19.390;2023-04-08T08:05:34;11.77;;;7.00;;
22131;SDS011;11232;51.748;19.390;2023-04-08T08:08:01;10.60;;;7.45;;
22131;SDS011;11232;51.748;19.390;2023-04-08T08:10:27;12.07;;;8.23;;
22131;SDS011;11232;51.748;19.390;2023-04-08T08:12:53;13.23;;;7.47;;
22131;SDS011;11232;51.748;19.390;2023-04-08T08:15:20;12.75;;;8.07;;
22131;SDS011;11232;51.748;19.390;2023-04-08T08:17:46;10.98;;;6.95;;
22131;SDS011;11232;51.748;19.390;2023-04-08T08:20:12;16.00;;;8.95;;
22131;SDS011;11232;51.748;19.390;2023-04-08T08:22:38;13.52;;;8.52;;
22131;SDS011;11232;51.748;19.390;2023-04-08T08:25:04;13.25;;;8.20;;
22131;SDS011;11232;51.748;19.390;2023-04-08T08:27:30;15.95;;;8.07;;
22131;SDS011;11232;51.748;19.390;2023-04-08T08:29:58;14.32;;;8.48;;
22131;SDS011;11232;51.748;19.390;2023-04-08T08:32:24;11.75;;;7.78;;
22131;SDS011;11232;51.748;19.390;2023-04-08T08:34:50;13.30;;;8.98;;
22131;SDS011;11232;51.748;19.390;2023-04-08T08:37:16;11.02;;;8.35;;
22131;SDS011;11232;51.748;19.390;2023-04-08T08:39:42;9.85;;;7.68;;
22131;SDS011;11232;51.748;19.390;2023-04-08T08:42:21;10.73;;;8.18;;
22131;SDS011;11232;51.748;19.390;2023-04-08T08:44:47;10.13;;;7.95;;
22131;SDS011;11232;51.748;19.390;2023-04-08T08:47:14;11.63;;;8.02;;
22131;SDS011;11232;51.748;19.390;2023-04-08T08:49:40;14.50;;;8.65;;
22131;SDS011;11232;51.748;19.390;2023-04-08T08:52:06;11.10;;;7.93;;
22131;SDS011;11232;51.748;19.390;2023-04-08T08:54:32;11.98;;;8.77;;
22131;SDS011;11232;51.748;19.390;2023-04-08T08:56:58;13.32;;;8.48;;
22131;SDS011;11232;51.748;19.390;2023-04-08T08:59:24;12.60;;;8.38;;
22131;SDS011;11232;51.748;19.390;2023-04-08T09:01:50;13.02;;;9.10;;
22131;SDS011;11232;51.748;19.390;2023-04-08T09:04:17;14.07;;;8.95;;
22131;SDS011;11232;51.748;19.390;2023-04-08T09:06:47;13.88;;;9.20;;
22131;SDS011;11232;51.748;19.390;2023-04-08T09:09:17;16.10;;;8.63;;
22131;SDS011;11232;51.748;19.390;2023-04-08T09:11:44;15.77;;;8.25;;
22131;SDS011;11232;51.748;19.390;2023-04-08T09:14:19;16.33;;;9.18;;
22131;SDS011;11232;51.748;19.390;2023-04-08T09:16:46;16.20;;;8.57;;
22131;SDS011;11232;51.748;19.390;2023-04-08T09:19:12;16.20;;;8.60;;
22131;SDS011;11232;51.748;19.390;2023-04-08T09:21:38;13.48;;;7.88;;
22131;SDS011;11232;51.748;19.390;2023-04-08T09:26:51;12.85;;;7.80;;
22131;SDS011;11232;51.748;19.390;2023-04-08T09:29:17;15.82;;;9.07;;
22131;SDS011;11232;51.748;19.390;2023-04-08T09:31:48;13.23;;;8.30;;
22131;SDS011;11232;51.748;19.390;2023-04-08T09:34:18;12.82;;;7.72;;
22131;SDS011;11232;51.748;19.390;2023-04-08T09:36:45;12.30;;;8.13;;
22131;SDS011;11232;51.748;19.390;2023-04-08T09:39:13;12.07;;;7.70;;
22131;SDS011;11232;51.748;19.390;2023-04-08T09:41:39;16.17;;;9.05;;
22131;SDS011;11232;51.748;19.390;2023-04-08T09:44:06;13.18;;;8.00;;
22131;SDS011;11232;51.748;19.390;2023-04-08T09:46:35;12.52;;;8.43;;
22131;SDS011;11232;51.748;19.390;2023-04-08T09:49:04;14.43;;;8.63;;
22131;SDS011;11232;51.748;19.390;2023-04-08T09:51:32;14.40;;;8.23;;
22131;SDS011;11232;51.748;19.390;2023-04-08T09:54:00;14.98;;;7.30;;
22131;SDS011;11232;51.748;19.390;2023-04-08T09:56:30;16.10;;;8.07;;
22131;SDS011;11232;51.748;19.390;2023-04-08T09:58:58;11.75;;;7.45;;
22131;SDS011;11232;51.748;19.390;2023-04-08T10:01:28;12.40;;;7.07;;
22131;SDS011;11232;51.748;19.390;2023-04-08T10:03:57;12.88;;;7.95;;
22131;SDS011;11232;51.748;19.390;2023-04-08T10:06:26;11.30;;;7.55;;
22131;SDS011;11232;51.748;19.390;2023-04-08T10:08:54;10.35;;;7.55;;
22131;SDS011;11232;51.748;19.390;2023-04-08T10:11:20;9.77;;;7.75;;
22131;SDS011;11232;51.748;19.390;2023-04-08T10:13:46;11.70;;;8.02;;
22131;SDS011;11232;51.748;19.390;2023-04-08T10:16:17;12.18;;;7.30;;
22131;SDS011;11232;51.748;19.390;2023-04-08T10:18:43;11.25;;;7.55;;
22131;SDS011;11232;51.748;19.390;2023-04-08T10:23:55;11.90;;;7.72;;
22131;SDS011;11232;51.748;19.390;2023-04-08T10:26:33;10.38;;;7.28;;
22131;SDS011;11232;51.748;19.390;2023-04-08T10:31:45;9.73;;;7.28;;
22131;SDS011;11232;51.748;19.390;2023-04-08T10:34:15;10.65;;;7.57;;
22131;SDS011;11232;51.748;19.390;2023-04-08T10:36:44;10.73;;;6.97;;
22131;SDS011;11232;51.748;19.390;2023-04-08T10:39:14;10.48;;;7.35;;
22131;SDS011;11232;51.748;19.390;2023-04-08T10:41:47;9.88;;;7.18;;
22131;SDS011;11232;51.748;19.390;2023-04-08T10:44:23;9.95;;;7.55;;
22131;SDS011;11232;51.748;19.390;2023-04-08T10:46:51;9.75;;;7.60;;
22131;SDS011;11232;51.748;19.390;2023-04-08T10:49:17;9.73;;;7.43;;
22131;SDS011;11232;51.748;19.390;2023-04-08T10:51:43;10.88;;;6.70;;
22131;SDS011;11232;51.748;19.390;2023-04-08T10:54:17;8.15;;;6.55;;
22131;SDS011;11232;51.748;19.390;2023-04-08T10:56:47;9.60;;;6.60;;
22131;SDS011;11232;51.748;19.390;2023-04-08T10:59:14;7.18;;;5.90;;
22131;SDS011;11232;51.748;19.390;2023-04-08T11:01:41;9.75;;;7.30;;
22131;SDS011;11232;51.748;19.390;2023-04-08T11:04:15;9.48;;;7.50;;
22131;SDS011;11232;51.748;19.390;2023-04-08T11:06:43;9.45;;;6.72;;
22131;SDS011;11232;51.748;19.390;2023-04-08T11:09:11;12.13;;;7.45;;
22131;SDS011;11232;51.748;19.390;2023-04-08T11:11:37;9.80;;;6.50;;
22131;SDS011;11232;51.748;19.390;2023-04-08T11:14:03;10.43;;;7.07;;
22131;SDS011;11232;51.748;19.390;2023-04-08T11:16:30;10.43;;;7.35;;
22131;SDS011;11232;51.748;19.390;2023-04-08T11:18:56;10.25;;;6.72;;
22131;SDS011;11232;51.748;19.390;2023-04-08T11:21:22;11.07;;;7.30;;
22131;SDS011;11232;51.748;19.390;2023-04-08T11:23:49;8.70;;;6.82;;
22131;SDS011;11232;51.748;19.390;2023-04-08T11:26:17;8.48;;;6.53;;
22131;SDS011;11232;51.748;19.390;2023-04-08T11:28:43;8.45;;;6.60;;
22131;SDS011;11232;51.748;19.390;2023-04-08T11:31:09;9.82;;;6.40;;
22131;SDS011;11232;51.748;19.390;2023-04-08T11:33:36;8.23;;;6.35;;
22131;SDS011;11232;51.748;19.390;2023-04-08T11:36:03;10.85;;;6.55;;
22131;SDS011;11232;51.748;19.390;2023-04-08T11:38:29;12.05;;;7.30;;
22131;SDS011;11232;51.748;19.390;2023-04-08T11:40:55;10.45;;;6.63;;
22131;SDS011;11232;51.748;19.390;2023-04-08T11:43:22;8.43;;;5.78;;
22131;SDS011;11232;51.748;19.390;2023-04-08T11:45:49;10.48;;;6.40;;
22131;SDS011;11232;51.748;19.390;2023-04-08T11:48:15;9.75;;;6.38;;
22131;SDS011;11232;51.748;19.390;2023-04-08T11:50:41;7.68;;;5.80;;
22131;SDS011;11232;51.748;19.390;2023-04-08T11:53:20;8.18;;;6.18;;
22131;SDS011;11232;51.748;19.390;2023-04-08T11:55:47;11.38;;;6.35;;
22131;SDS011;11232;51.748;19.390;2023-04-08T11:58:14;8.73;;;6.30;;
22131;SDS011;11232;51.748;19.390;2023-04-08T12:00:40;11.70;;;6.25;;
22131;SDS011;11232;51.748;19.390;2023-04-08T12:03:07;9.75;;;6.18;;
22131;SDS011;11232;51.748;19.390;2023-04-08T12:05:33;8.65;;;6.20;;
22131;SDS011;11232;51.748;19.390;2023-04-08T12:08:00;8.98;;;5.88;;
22131;SDS011;11232;51.748;19.390;2023-04-08T12:10:26;7.97;;;5.35;;
22131;SDS011;11232;51.748;19.390;2023-04-08T12:12:52;7.65;;;5.68;;
22131;SDS011;11232;51.748;19.390;2023-04-08T12:15:18;8.75;;;6.20;;
22131;SDS011;11232;51.748;19.390;2023-04-08T12:17:44;7.72;;;5.30;;
22131;SDS011;11232;51.748;19.390;2023-04-08T12:20:10;10.10;;;5.93;;
22131;SDS011;11232;51.748;19.390;2023-04-08T12:22:37;9.18;;;5.97;;
22131;SDS011;11232;51.748;19.390;2023-04-08T12:25:03;7.18;;;5.80;;
22131;SDS011;11232;51.748;19.390;2023-04-08T12:27:30;9.45;;;5.55;;
22131;SDS011;11232;51.748;19.390;2023-04-08T12:30:06;8.48;;;5.70;;
22131;SDS011;11232;51.748;19.390;2023-04-08T12:32:32;8.50;;;5.80;;
22131;SDS011;11232;51.748;19.390;2023-04-08T12:34:58;7.32;;;5.50;;
22131;SDS011;11232;51.748;19.390;2023-04-08T12:37:24;8.30;;;5.85;;
22131;SDS011;11232;51.748;19.390;2023-04-08T12:39:51;8.25;;;5.90;;
22131;SDS011;11232;51.748;19.390;2023-04-08T12:42:17;8.25;;;5.50;;
22131;SDS011;11232;51.748;19.390;2023-04-08T12:44:43;8.63;;;6.25;;
22131;SDS011;11232;51.748;19.390;2023-04-08T12:47:09;11.02;;;5.55;;
22131;SDS011;11232;51.748;19.390;2023-04-08T12:49:35;8.98;;;6.05;;
22131;SDS011;11232;51.748;19.390;2023-04-08T12:52:01;10.23;;;5.90;;
22131;SDS011;11232;51.748;19.390;2023-04-08T12:54:27;12.50;;;6.63;;
22131;SDS011;11232;51.748;19.390;2023-04-08T12:56:55;10.20;;;6.53;;
22131;SDS011;11232;51.748;19.390;2023-04-08T12:59:21;8.98;;;5.97;;
22131;SDS011;11232;51.748;19.390;2023-04-08T13:01:47;9.13;;;5.72;;
22131;SDS011;11232;51.748;19.390;2023-04-08T13:04:13;13.35;;;6.00;;
22131;SDS011;11232;51.748;19.390;2023-04-08T13:06:39;8.38;;;5.60;;
22131;SDS011;11232;51.748;19.390;2023-04-08T13:09:05;9.45;;;6.10;;
22131;SDS011;11232;51.748;19.390;2023-04-08T13:11:31;8.38;;;5.45;;
22131;SDS011;11232;51.748;19.390;2023-04-08T13:13:58;9.05;;;6.00;;
22131;SDS011;11232;51.748;19.390;2023-04-08T13:16:24;8.43;;;5.38;;
22131;SDS011;11232;51.748;19.390;2023-04-08T13:18:50;8.20;;;5.30;;
22131;SDS011;11232;51.748;19.390;2023-04-08T13:21:16;7.75;;;5.72;;
22131;SDS011;11232;51.748;19.390;2023-04-08T13:23:42;9.02;;;5.88;;
22131;SDS011;11232;51.748;19.390;2023-04-08T13:26:08;8.20;;;5.70;;
22131;SDS011;11232;51.748;19.390;2023-04-08T13:28:34;8.13;;;5.88;;
22131;SDS011;11232;51.748;19.390;2023-04-08T13:31:00;7.93;;;5.03;;
22131;SDS011;11232;51.748;19.390;2023-04-08T13:33:26;6.88;;;5.03;;
22131;SDS011;11232;51.748;19.390;2023-04-08T13:35:52;7.15;;;5.43;;
22131;SDS011;11232;51.748;19.390;2023-04-08T13:38:18;7.55;;;5.68;;
22131;SDS011;11232;51.748;19.390;2023-04-08T13:40:44;6.90;;;5.32;;
22131;SDS011;11232;51.748;19.390;2023-04-08T13:43:10;7.88;;;5.25;;
22131;SDS011;11232;51.748;19.390;2023-04-08T13:45:36;8.07;;;4.75;;
22131;SDS011;11232;51.748;19.390;2023-04-08T13:48:02;6.70;;;5.20;;
22131;SDS011;11232;51.748;19.390;2023-04-08T13:50:28;6.95;;;4.90;;
22131;SDS011;11232;51.748;19.390;2023-04-08T13:52:54;8.30;;;4.85;;
22131;SDS011;11232;51.748;19.390;2023-04-08T13:55:21;9.43;;;5.40;;
22131;SDS011;11232;51.748;19.390;2023-04-08T13:57:47;9.10;;;5.70;;
22131;SDS011;11232;51.748;19.390;2023-04-08T14:00:13;9.38;;;5.43;;
22131;SDS011;11232;51.748;19.390;2023-04-08T14:02:39;8.20;;;6.07;;
22131;SDS011;11232;51.748;19.390;2023-04-08T14:05:05;8.63;;;5.63;;
22131;SDS011;11232;51.748;19.390;2023-04-08T14:07:31;9.43;;;5.47;;
22131;SDS011;11232;51.748;19.390;2023-04-08T14:09:57;8.10;;;5.25;;
22131;SDS011;11232;51.748;19.390;2023-04-08T14:12:23;7.85;;;5.70;;
22131;SDS011;11232;51.748;19.390;2023-04-08T14:14:49;8.93;;;5.75;;
22131;SDS011;11232;51.748;19.390;2023-04-08T14:17:15;8.38;;;5.40;;
22131;SDS011;11232;51.748;19.390;2023-04-08T14:19:41;10.32;;;6.03;;
22131;SDS011;11232;51.748;19.390;2023-04-08T14:22:07;7.57;;;5.38;;
22131;SDS011;11232;51.748;19.390;2023-04-08T14:24:33;9.27;;;6.10;;
22131;SDS011;11232;51.748;19.390;2023-04-08T14:26:59;7.07;;;5.53;;
22131;SDS011;11232;51.748;19.390;2023-04-08T14:29:25;9.13;;;5.25;;
22131;SDS011;11232;51.748;19.390;2023-04-08T14:31:51;8.25;;;5.25;;